createdAt,value
2023-04-07T00:00:51.366Z,11.77
2023-04-07T00:03:18.380Z,11.60
2023-04-07T00:05:45.389Z,10.73
2023-04-07T00:08:12.336Z,10.53
2023-04-07T00:10:39.467Z,9.83
2023-04-07T00:13:06.336Z,9.83
2023-04-07T00:15:33.443Z,10.00
2023-04-07T00:18:00.464Z,9.97
2023-04-07T00:20:27.658Z,9.83
2023-04-07T00:22:54.603Z,9.40
2023-04-07T00:25:21.655Z,10.23
2023-04-07T00:27:48.563Z,9.70
2023-04-07T00:30:15.825Z,11.13
2023-04-07T00:32:42.921Z,11.93
2023-04-07T00:35:12.552Z,12.07
2023-04-07T00:37:39.523Z,9.73
2023-04-07T00:40:07.259Z,10.07
2023-04-07T00:42:34.809Z,9.80
2023-04-07T00:45:02.100Z,9.87
2023-04-07T00:47:29.025Z,9.33
2023-04-07T00:49:56.056Z,10.00
2023-04-07T00:52:29.010Z,9.23
2023-04-07T00:54:56.250Z,9.90
2023-04-07T00:57:23.781Z,9.67
2023-04-07T00:59:51.688Z,9.90
2023-04-07T01:02:41.761Z,10.67
2023-04-07T01:05:15.408Z,11.03
2023-04-07T01:07:56.569Z,11.43
2023-04-07T01:10:34.287Z,11.33
2023-04-07T01:13:23.323Z,11.40
2023-04-07T01:15:53.243Z,11.93
2023-04-07T01:18:28.942Z,11.90
2023-04-07T01:21:03.057Z,11.47
2023-04-07T01:23:48.550Z,13.23
2023-04-07T01:26:43.135Z,12.57
2023-04-07T01:29:26.720Z,13.33
2023-04-07T01:31:56.992Z,14.50
2023-04-07T01:34:27.132Z,15.90
2023-04-07T01:36:55.912Z,14.40
2023-04-07T01:39:23.860Z,14.33
2023-04-07T01:41:53.464Z,13.17
2023-04-07T01:44:21.520Z,11.53
2023-04-07T01:46:51.414Z,11.63
2023-04-07T01:49:19.713Z,11.30
2023-04-07T01:51:50.886Z,11.10
2023-04-07T01:54:18.753Z,12.07
2023-04-07T01:56:45.910Z,11.20
2023-04-07T01:59:13.516Z,11.23
2023-04-07T02:01:41.175Z,11.40
2023-04-07T02:04:26.476Z,12.03
2023-04-07T02:07:01.951Z,11.57
2023-04-07T02:09:31.966Z,11.47
2023-04-07T02:12:01.162Z,11.67
2023-04-07T02:14:29.131Z,11.30
2023-04-07T02:16:57.510Z,11.90
2023-04-07T02:19:25.224Z,11.27
2023-04-07T02:21:52.733Z,11.67
2023-04-07T02:24:21.578Z,11.70
2023-04-07T02:26:48.955Z,11.17
2023-04-07T02:29:16.026Z,11.70
2023-04-07T02:31:43.245Z,12.00
2023-04-07T02:34:10.539Z,12.70
2023-04-07T02:36:37.808Z,11.80
2023-04-07T02:39:04.876Z,11.73
2023-04-07T02:41:31.880Z,11.60
2023-04-07T02:43:58.767Z,11.90
2023-04-07T02:46:26.112Z,12.93
2023-04-07T02:48:53.088Z,11.77
2023-04-07T02:51:20.196Z,12.47
2023-04-07T02:53:47.259Z,12.13
2023-04-07T02:56:16.854Z,12.27
2023-04-07T02:58:43.723Z,12.07
2023-04-07T03:01:10.781Z,11.07
2023-04-07T03:03:37.866Z,12.40
2023-04-07T03:06:05.246Z,13.30
2023-04-07T03:08:32.067Z,12.67
2023-04-07T03:10:59.043Z,12.70
2023-04-07T03:13:26.058Z,12.73
2023-04-07T03:15:53.004Z,12.80
2023-04-07T03:18:19.951Z,13.83
2023-04-07T03:20:48.847Z,15.00
2023-04-07T03:23:15.790Z,13.93
2023-04-07T03:25:42.839Z,41.03
2023-04-07T03:28:09.735Z,16.30
2023-04-07T03:30:37.701Z,14.87
2023-04-07T03:33:04.740Z,14.60
2023-04-07T03:35:31.756Z,15.23
2023-04-07T03:37:58.743Z,15.67
2023-04-07T03:40:26.015Z,17.17
2023-04-07T03:42:52.989Z,14.23
2023-04-07T03:45:20.099Z,14.20
2023-04-07T03:47:47.335Z,14.53
2023-04-07T03:50:14.541Z,13.10
2023-04-07T03:52:42.017Z,12.50
2023-04-07T03:55:09.526Z,12.50
2023-04-07T03:57:39.412Z,10.53
2023-04-07T04:00:07.255Z,10.30
2023-04-07T04:02:34.401Z,9.70
2023-04-07T04:05:01.466Z,10.57
2023-04-07T04:07:28.374Z,10.87
2023-04-07T04:09:55.222Z,10.70
2023-04-07T04:12:22.538Z,11.57
2023-04-07T04:14:49.483Z,10.80
2023-04-07T04:17:16.783Z,10.57
2023-04-07T04:19:43.789Z,11.20
2023-04-07T04:22:11.594Z,11.93
2023-04-07T04:24:38.435Z,11.13
2023-04-07T04:27:05.382Z,11.20
2023-04-07T04:29:33.008Z,10.67
2023-04-07T04:32:00.224Z,11.90
2023-04-07T04:34:27.909Z,12.73
2023-04-07T04:36:54.861Z,13.13
2023-04-07T04:39:21.813Z,12.50
2023-04-07T04:41:48.840Z,13.83
2023-04-07T04:44:15.718Z,14.57
2023-04-07T04:46:42.610Z,14.70
2023-04-07T04:49:09.603Z,13.70
2023-04-07T04:51:36.515Z,14.03
2023-04-07T04:54:04.333Z,12.47
2023-04-07T04:56:31.151Z,12.87
2023-04-07T04:58:58.099Z,12.77
2023-04-07T05:01:25.176Z,14.73
2023-04-07T05:03:52.522Z,11.93
2023-04-07T05:06:19.708Z,11.20
2023-04-07T05:08:47.214Z,11.93
2023-04-07T05:11:14.264Z,11.20
2023-04-07T05:13:41.403Z,11.43
2023-04-07T05:16:11.390Z,10.57
2023-04-07T05:18:38.213Z,11.93
2023-04-07T05:21:05.192Z,11.87
2023-04-07T05:23:32.052Z,12.77
2023-04-07T05:25:59.031Z,12.07
2023-04-07T05:28:25.958Z,12.40
2023-04-07T05:30:52.825Z,12.20
2023-04-07T05:33:20.046Z,12.70
2023-04-07T05:35:47.112Z,12.60
2023-04-07T05:38:14.643Z,11.47
2023-04-07T05:40:41.611Z,12.90
2023-04-07T05:43:08.581Z,9.10
2023-04-07T05:45:35.785Z,11.17
2023-04-07T05:48:02.905Z,10.50
2023-04-07T05:50:29.842Z,10.63
2023-04-07T05:52:56.873Z,9.97
2023-04-07T05:55:23.788Z,10.70
2023-04-07T05:57:50.737Z,10.30
2023-04-07T06:00:17.949Z,11.03
2023-04-07T06:02:44.986Z,10.77
2023-04-07T06:05:14.922Z,10.37
2023-04-07T06:07:41.801Z,10.57
2023-04-07T06:10:09.057Z,10.30
2023-04-07T06:12:36.199Z,10.20
2023-04-07T06:15:03.118Z,9.93
2023-04-07T06:17:30.107Z,11.03
2023-04-07T06:19:57.131Z,10.77
2023-04-07T06:22:24.070Z,9.40
2023-04-07T06:24:50.949Z,10.50
2023-04-07T06:27:18.692Z,10.83
2023-04-07T06:29:45.731Z,9.80
2023-04-07T06:32:13.014Z,9.63
2023-04-07T06:34:40.137Z,10.97
2023-04-07T06:37:08.283Z,10.23
2023-04-07T06:39:35.460Z,10.00
2023-04-07T06:42:02.715Z,10.00
2023-04-07T06:44:29.774Z,10.33
2023-04-07T06:46:56.738Z,10.10
2023-04-07T06:49:23.838Z,10.37
2023-04-07T06:51:50.936Z,10.60
2023-04-07T06:54:18.367Z,9.70
2023-04-07T06:56:45.417Z,10.33
2023-04-07T06:59:12.472Z,10.60
2023-04-07T07:01:40.185Z,11.03
2023-04-07T07:04:07.593Z,10.93
2023-04-07T07:06:37.727Z,11.50
2023-04-07T07:09:04.852Z,10.37
2023-04-07T07:11:31.987Z,11.63
2023-04-07T07:13:58.884Z,10.50
2023-04-07T07:16:25.993Z,10.97
2023-04-07T07:18:52.837Z,10.03
2023-04-07T07:21:19.977Z,10.27
2023-04-07T07:23:47.256Z,9.87
2023-04-07T07:26:14.380Z,10.40
2023-04-07T07:28:41.400Z,9.07
2023-04-07T07:31:11.102Z,10.13
2023-04-07T07:33:40.730Z,9.73
2023-04-07T07:36:09.049Z,10.50
2023-04-07T07:38:37.680Z,9.60
2023-04-07T07:41:05.077Z,9.73
2023-04-07T07:43:32.117Z,9.17
2023-04-07T07:46:01.995Z,9.40
2023-04-07T07:48:29.203Z,8.53
2023-04-07T07:50:57.212Z,9.03
2023-04-07T07:53:24.301Z,8.80
2023-04-07T07:55:51.592Z,9.00
2023-04-07T07:58:18.613Z,8.57
2023-04-07T08:00:45.660Z,7.70
2023-04-07T08:03:12.771Z,8.00
2023-04-07T08:05:39.940Z,7.30
2023-04-07T08:08:07.905Z,7.50
2023-04-07T08:10:34.920Z,7.60
2023-04-07T08:13:01.812Z,7.50
2023-04-07T08:15:28.817Z,7.70
2023-04-07T08:17:56.494Z,7.57
2023-04-07T08:20:24.122Z,7.80
2023-04-07T08:22:51.101Z,7.23
2023-04-07T08:25:18.076Z,7.30
2023-04-07T08:27:44.991Z,7.47
2023-04-07T08:30:12.074Z,7.63
2023-04-07T08:32:46.315Z,7.10
2023-04-07T08:35:13.928Z,7.40
2023-04-07T08:37:42.510Z,6.77
2023-04-07T08:40:10.197Z,7.13
2023-04-07T08:42:41.626Z,7.83
2023-04-07T08:45:10.087Z,7.03
2023-04-07T08:47:38.506Z,7.77
2023-04-07T08:50:11.363Z,8.10
2023-04-07T08:52:43.742Z,7.70
2023-04-07T08:55:11.287Z,7.40
2023-04-07T08:57:39.444Z,7.50
2023-04-07T09:00:06.861Z,6.97
2023-04-07T09:02:41.581Z,7.77
2023-04-07T09:05:09.645Z,7.13
2023-04-07T09:07:38.815Z,7.87
2023-04-07T09:10:06.965Z,7.13
2023-04-07T09:12:34.843Z,7.80
2023-04-07T09:15:01.850Z,7.23
2023-04-07T09:17:30.072Z,7.80
2023-04-07T09:20:01.354Z,8.17
2023-04-07T09:22:45.929Z,8.97
2023-04-07T09:25:23.218Z,8.07
2023-04-07T09:28:07.307Z,7.30
2023-04-07T09:30:34.689Z,7.50
2023-04-07T09:33:02.676Z,7.60
2023-04-07T09:35:30.202Z,8.00
2023-04-07T09:38:09.065Z,7.50
2023-04-07T09:40:37.966Z,8.13
2023-04-07T09:43:06.187Z,8.57
2023-04-07T09:45:36.813Z,7.50
2023-04-07T09:48:09.327Z,7.57
2023-04-07T09:50:40.140Z,7.97
2023-04-07T09:53:07.390Z,8.47
2023-04-07T09:55:35.636Z,7.57
2023-04-07T09:58:04.594Z,7.47
2023-04-07T10:00:31.590Z,8.67
2023-04-07T10:02:59.249Z,8.40
2023-04-07T10:05:26.782Z,7.97
2023-04-07T10:07:54.911Z,8.20
2023-04-07T10:10:21.942Z,8.63
2023-04-07T10:12:50.741Z,7.63
2023-04-07T10:15:17.965Z,7.73
2023-04-07T10:17:48.932Z,7.80
2023-04-07T10:20:21.459Z,8.07
2023-04-07T10:22:54.136Z,8.00
2023-04-07T10:25:25.160Z,7.17
2023-04-07T10:27:59.889Z,6.97
2023-04-07T10:30:33.887Z,7.50
2023-04-07T10:33:00.769Z,7.50
2023-04-07T10:35:28.828Z,7.13
2023-04-07T10:38:08.235Z,8.57
2023-04-07T10:40:36.564Z,7.70
2023-04-07T10:43:06.769Z,8.37
2023-04-07T10:45:49.185Z,7.17
2023-04-07T10:48:17.392Z,7.87
2023-04-07T10:50:46.606Z,7.43
2023-04-07T10:53:17.710Z,8.07
2023-04-07T10:55:54.459Z,7.20
2023-04-07T10:58:31.794Z,6.43
2023-04-07T11:01:04.974Z,7.30
2023-04-07T11:03:37.138Z,7.40
2023-04-07T11:06:13.076Z,7.33
2023-04-07T11:08:42.492Z,7.67
2023-04-07T11:11:11.373Z,7.57
2023-04-07T11:13:48.544Z,7.30
2023-04-07T11:16:18.178Z,6.93
2023-04-07T11:18:48.608Z,7.33
2023-04-07T11:21:19.634Z,6.97
2023-04-07T11:23:48.174Z,7.43
2023-04-07T11:26:16.217Z,6.57
2023-04-07T11:28:48.471Z,7.53
2023-04-07T11:31:26.233Z,6.50
2023-04-07T11:33:55.402Z,7.70
2023-04-07T11:36:41.840Z,6.60
2023-04-07T11:39:19.646Z,6.80
2023-04-07T11:41:48.343Z,7.67
2023-04-07T11:44:15.139Z,7.33
2023-04-07T11:46:58.795Z,6.97
2023-04-07T11:49:30.074Z,7.57
2023-04-07T11:52:09.551Z,7.13
2023-04-07T11:54:54.511Z,7.40
2023-04-07T11:57:29.725Z,7.13
2023-04-07T12:00:14.476Z,7.63
2023-04-07T12:02:42.008Z,7.77
2023-04-07T12:05:11.036Z,6.80
2023-04-07T12:07:38.865Z,6.67
2023-04-07T12:10:27.833Z,7.20
2023-04-07T12:12:55.236Z,7.00
2023-04-07T12:15:23.130Z,6.40
2023-04-07T12:17:50.120Z,7.10
2023-04-07T12:20:17.244Z,6.90
2023-04-07T12:22:44.034Z,7.13
2023-04-07T12:25:11.106Z,7.63
2023-04-07T12:27:43.194Z,7.17
2023-04-07T12:30:11.441Z,6.40
2023-04-07T12:32:38.553Z,7.60
2023-04-07T12:35:06.612Z,7.50
2023-04-07T12:37:33.383Z,7.70
2023-04-07T12:40:00.730Z,7.37
2023-04-07T12:42:28.202Z,7.43
2023-04-07T12:44:55.077Z,7.40
2023-04-07T12:47:22.248Z,7.77
2023-04-07T12:49:50.187Z,7.40
2023-04-07T12:52:17.386Z,8.17
2023-04-07T12:54:45.604Z,7.00
2023-04-07T12:57:13.252Z,6.50
2023-04-07T12:59:40.082Z,7.27
2023-04-07T13:02:07.046Z,7.23
2023-04-07T13:04:35.461Z,6.27
2023-04-07T13:07:03.675Z,6.50
2023-04-07T13:09:30.509Z,6.60
2023-04-07T13:11:58.155Z,5.87
2023-04-07T13:14:25.133Z,6.03
2023-04-07T13:16:52.260Z,6.30
2023-04-07T13:19:19.023Z,6.10
2023-04-07T13:21:47.778Z,5.93
2023-04-07T13:24:15.256Z,5.67
2023-04-07T13:26:41.965Z,5.20
2023-04-07T13:29:08.873Z,5.20
2023-04-07T13:31:35.658Z,4.87
2023-04-07T13:34:02.400Z,4.80
2023-04-07T13:36:30.252Z,5.27
2023-04-07T13:38:57.863Z,5.10
2023-04-07T13:41:24.722Z,5.53
2023-04-07T13:43:51.738Z,4.90
2023-04-07T13:48:48.383Z,4.63
2023-04-07T13:51:15.096Z,5.67
2023-04-07T13:53:41.849Z,5.20
2023-04-07T13:56:09.830Z,5.13
2023-04-07T13:58:36.808Z,5.27
2023-04-07T14:01:04.525Z,5.10
2023-04-07T14:03:31.997Z,6.40
2023-04-07T14:06:01.400Z,4.83
2023-04-07T14:08:28.327Z,3.87
2023-04-07T14:10:55.196Z,4.47
2023-04-07T14:13:22.016Z,4.20
2023-04-07T14:15:49.028Z,5.37
2023-04-07T14:18:15.898Z,5.07
2023-04-07T14:20:42.648Z,3.57
2023-04-07T14:23:09.446Z,4.23
2023-04-07T14:25:36.429Z,4.30
2023-04-07T14:28:03.380Z,3.93
2023-04-07T14:30:31.118Z,4.10
2023-04-07T14:32:57.992Z,4.20
2023-04-07T14:35:24.825Z,4.47
2023-04-07T14:37:52.724Z,4.13
2023-04-07T14:40:22.164Z,4.00
2023-04-07T14:42:49.200Z,4.20
2023-04-07T14:45:18.123Z,4.20
2023-04-07T14:47:44.882Z,4.70
2023-04-07T14:50:11.736Z,4.67
2023-04-07T14:52:38.523Z,4.67
2023-04-07T14:55:05.894Z,4.60
2023-04-07T14:57:32.786Z,4.00
2023-04-07T14:59:59.547Z,4.30
2023-04-07T15:02:26.470Z,4.47
2023-04-07T15:04:53.334Z,4.13
2023-04-07T15:07:20.251Z,4.50
2023-04-07T15:09:48.127Z,4.67
2023-04-07T15:12:14.865Z,4.13
2023-04-07T15:14:42.085Z,4.07
2023-04-07T15:17:08.840Z,4.20
2023-04-07T15:19:35.580Z,3.83
2023-04-07T15:22:02.324Z,4.33
2023-04-07T15:24:29.193Z,4.00
2023-04-07T15:26:55.987Z,3.90
2023-04-07T15:29:22.715Z,3.83
2023-04-07T15:31:49.492Z,3.57
2023-04-07T15:34:16.438Z,4.10
2023-04-07T15:36:43.236Z,4.07
2023-04-07T15:39:10.017Z,3.70
2023-04-07T15:41:37.135Z,4.10
2023-04-07T15:44:04.745Z,3.80
2023-04-07T15:46:34.186Z,3.33
2023-04-07T15:49:04.140Z,3.70
2023-04-07T15:51:31.293Z,3.80
2023-04-07T15:54:00.184Z,4.00
2023-04-07T15:56:27.899Z,4.23
2023-04-07T15:58:54.641Z,3.67
2023-04-07T16:01:21.497Z,3.67
2023-04-07T16:03:48.553Z,3.20
2023-04-07T16:06:15.645Z,3.40
2023-04-07T16:08:42.361Z,4.00
2023-04-07T16:11:09.217Z,3.67
2023-04-07T16:13:36.517Z,4.17
2023-04-07T16:16:03.418Z,4.27
2023-04-07T16:18:30.639Z,4.00
2023-04-07T16:20:57.388Z,3.83
2023-04-07T16:23:24.450Z,3.40
2023-04-07T16:25:51.350Z,3.93
2023-04-07T16:28:18.108Z,3.57
2023-04-07T16:30:44.828Z,3.87
2023-04-07T16:33:12.165Z,3.20
2023-04-07T16:35:39.049Z,3.40
2023-04-07T16:38:06.442Z,3.83
2023-04-07T16:40:33.904Z,3.80
2023-04-07T16:43:00.953Z,4.07
2023-04-07T16:45:27.785Z,3.87
2023-04-07T16:47:54.574Z,4.30
2023-04-07T16:50:21.765Z,4.37
2023-04-07T16:52:48.516Z,3.80
2023-04-07T16:55:15.300Z,4.17
2023-04-07T16:57:42.033Z,4.13
2023-04-07T17:00:09.505Z,4.37
2023-04-07T17:02:36.553Z,4.37
2023-04-07T17:05:03.570Z,4.43
2023-04-07T17:07:30.358Z,3.90
2023-04-07T17:09:57.074Z,4.53
2023-04-07T17:12:23.873Z,4.20
2023-04-07T17:14:50.650Z,4.43
2023-04-07T17:17:17.378Z,4.53
2023-04-07T17:19:44.101Z,4.53
2023-04-07T17:22:11.404Z,4.60
2023-04-07T17:24:38.176Z,4.47
2023-04-07T17:27:04.869Z,4.97
2023-04-07T17:29:31.713Z,4.40
2023-04-07T17:31:58.474Z,5.23
2023-04-07T17:34:25.726Z,5.83
2023-04-07T17:36:52.479Z,5.33
2023-04-07T17:39:19.316Z,4.63
2023-04-07T17:41:47.762Z,5.30
2023-04-07T17:44:14.716Z,5.23
2023-04-07T17:46:45.198Z,5.30
2023-04-07T17:49:12.554Z,4.83
2023-04-07T17:51:39.643Z,5.10
2023-04-07T17:54:06.384Z,5.17
2023-04-07T17:56:33.136Z,5.70
2023-04-07T17:59:03.226Z,5.53
2023-04-07T18:01:30.082Z,5.97
2023-04-07T18:03:57.481Z,5.57
2023-04-07T18:06:24.317Z,6.77
2023-04-07T18:08:50.997Z,6.43
2023-04-07T18:11:19.237Z,6.93
2023-04-07T18:13:45.987Z,6.70
2023-04-07T18:16:19.208Z,7.03
2023-04-07T18:18:47.897Z,6.47
2023-04-07T18:21:14.643Z,5.57
2023-04-07T18:23:41.339Z,6.43
2023-04-07T18:26:08.076Z,7.07
2023-04-07T18:28:35.536Z,6.73
2023-04-07T18:31:08.065Z,7.40
2023-04-07T18:33:35.923Z,6.83
2023-04-07T18:36:08.017Z,6.77
2023-04-07T18:38:36.061Z,7.57
2023-04-07T18:41:03.026Z,7.13
2023-04-07T18:43:30.599Z,9.37
2023-04-07T18:45:57.406Z,9.97
2023-04-07T18:48:24.367Z,9.30
2023-04-07T18:50:55.058Z,9.07
2023-04-07T18:53:23.296Z,8.73
2023-04-07T18:55:50.279Z,8.33
2023-04-07T18:58:17.250Z,7.83
2023-04-07T19:00:44.721Z,6.43
2023-04-07T19:03:12.142Z,6.27
2023-04-07T19:05:42.359Z,5.67
2023-04-07T19:08:09.303Z,6.13
2023-04-07T19:10:36.345Z,5.30
2023-04-07T19:13:03.829Z,5.30
2023-04-07T19:15:36.601Z,5.70
2023-04-07T19:18:03.440Z,5.83
2023-04-07T19:20:30.651Z,5.60
2023-04-07T19:23:00.547Z,6.10
2023-04-07T19:25:27.504Z,5.67
2023-04-07T19:27:54.541Z,4.97
2023-04-07T19:30:21.291Z,4.60
2023-04-07T19:32:48.059Z,5.57
2023-04-07T19:35:16.114Z,5.87
2023-04-07T19:37:43.145Z,5.07
2023-04-07T19:40:10.946Z,5.33
2023-04-07T19:42:40.008Z,4.90
2023-04-07T19:45:08.462Z,5.47
2023-04-07T19:47:36.236Z,5.20
2023-04-07T19:50:04.189Z,5.10
2023-04-07T19:52:32.200Z,5.10
2023-04-07T19:54:59.920Z,4.67
2023-04-07T19:57:28.079Z,6.13
2023-04-07T19:59:54.872Z,5.73
2023-04-07T20:02:21.799Z,5.37
2023-04-07T20:04:48.754Z,6.47
2023-04-07T20:07:15.835Z,7.43
2023-04-07T20:09:42.664Z,7.03
2023-04-07T20:12:09.497Z,6.23
2023-04-07T20:14:36.280Z,6.53
2023-04-07T20:17:03.131Z,7.50
2023-04-07T20:19:29.930Z,5.90
2023-04-07T20:21:56.767Z,6.90
2023-04-07T20:24:23.476Z,6.43
2023-04-07T20:26:50.176Z,5.63
2023-04-07T20:29:16.988Z,6.50
2023-04-07T20:31:44.331Z,6.30
2023-04-07T20:34:11.138Z,6.47
2023-04-07T20:36:38.005Z,7.30
2023-04-07T20:39:04.812Z,7.20
2023-04-07T20:41:31.702Z,7.33
2023-04-07T20:43:58.836Z,7.57
2023-04-07T20:46:25.668Z,7.30
2023-04-07T20:48:53.073Z,7.23
2023-04-07T20:51:19.944Z,7.20
2023-04-07T20:53:47.492Z,7.23
2023-04-07T20:56:14.629Z,7.30
2023-04-07T20:58:41.760Z,10.90
2023-04-07T21:01:08.701Z,8.33
2023-04-07T21:03:36.683Z,7.60
2023-04-07T21:06:04.953Z,7.53
2023-04-07T21:08:32.441Z,6.97
2023-04-07T21:10:59.338Z,6.47
2023-04-07T21:13:27.467Z,7.33
2023-04-07T21:15:54.706Z,6.83
2023-04-07T21:18:21.800Z,7.43
2023-04-07T21:20:49.105Z,6.57
2023-04-07T21:23:16.412Z,7.03
2023-04-07T21:25:43.452Z,6.83
2023-04-07T21:28:10.771Z,6.60
2023-04-07T21:30:41.810Z,6.87
2023-04-07T21:33:08.860Z,6.70
2023-04-07T21:35:35.771Z,6.67
2023-04-07T21:38:02.675Z,6.40
2023-04-07T21:40:29.719Z,7.53
2023-04-07T21:42:56.856Z,6.17
2023-04-07T21:45:23.950Z,7.10
2023-04-07T21:47:51.108Z,6.77
2023-04-07T21:50:19.079Z,7.80
2023-04-07T21:52:46.272Z,6.43
2023-04-07T21:55:18.267Z,6.70
2023-04-07T21:57:51.811Z,6.50
2023-04-07T22:00:19.061Z,6.83
2023-04-07T22:02:49.988Z,7.17
2023-04-07T22:05:17.770Z,7.23
2023-04-07T22:07:45.854Z,6.97
2023-04-07T22:10:13.113Z,7.33
2023-04-07T22:12:40.979Z,6.27
2023-04-07T22:15:09.257Z,6.83
2023-04-07T22:17:36.649Z,6.63
2023-04-07T22:20:05.428Z,6.87
2023-04-07T22:22:36.344Z,6.50
2023-04-07T22:25:07.257Z,6.80
2023-04-07T22:27:35.622Z,6.63
2023-04-07T22:30:04.141Z,6.53
2023-04-07T22:32:31.747Z,6.27
2023-04-07T22:34:59.031Z,5.63
2023-04-07T22:37:26.131Z,6.60
2023-04-07T22:39:53.742Z,6.10
2023-04-07T22:42:21.613Z,6.57
2023-04-07T22:44:48.756Z,6.53
2023-04-07T22:47:16.208Z,6.50
2023-04-07T22:49:43.292Z,6.37
2023-04-07T22:52:10.282Z,6.00
2023-04-07T22:54:40.642Z,6.63
2023-04-07T22:57:08.123Z,6.20
2023-04-07T22:59:35.272Z,6.43
2023-04-07T23:02:02.437Z,6.47
2023-04-07T23:04:33.651Z,7.03
2023-04-07T23:07:04.584Z,6.73
2023-04-07T23:09:32.043Z,6.20
2023-04-07T23:11:59.302Z,6.60
2023-04-07T23:14:29.829Z,6.83
2023-04-07T23:16:58.144Z,6.97
2023-04-07T23:19:28.730Z,6.27
2023-04-07T23:21:56.395Z,6.60
2023-04-07T23:24:23.563Z,6.30
2023-04-07T23:26:50.897Z,6.53
2023-04-07T23:29:18.272Z,6.70
2023-04-07T23:31:45.502Z,6.43
2023-04-07T23:34:12.486Z,7.10
2023-04-07T23:36:39.860Z,7.03
2023-04-07T23:39:06.634Z,6.83
2023-04-07T23:41:33.393Z,6.63
2023-04-07T23:44:00.159Z,6.67
2023-04-07T23:46:27.009Z,6.37
2023-04-07T23:48:54.054Z,7.27
2023-04-07T23:51:20.871Z,7.07
2023-04-07T23:53:47.613Z,6.93
2023-04-07T23:56:14.579Z,7.03
2023-04-07T23:58:41.475Z,6.70
